Main page
METAR-TAF:

METAR-TAF

Airports :

Cambridge, England

Cambridge Airport

latitude: 52-12N, longitude: 000-11E, elevation: 15 m

Current weather observation

The report was made 30 minutes ago, at 06:50 UTC
Wind 11 kt from the West
Temperature 14°C
Humidity 88%
Pressure 1014 hPa
Visibility 10 km or more
Few clouds at a height of 4300 ft

METAR: EGSC 190650Z 26011KT 9999 FEW043 14/12 Q1014

Time: 08:20 (07:20 UTC)

Forecast

The report was made 14 hours and 43 minutes ago, at 16:37 UTC
Forecast valid from 18 at 16 UTC to 18 at 19 UTC
Wind 13 kt from the West/Southwest
Visibility 10 km or more
Scattered clouds at a height of 3500 ft
Temporary
from 18 at 16 UTC to 18 at 19 UTC
Wind 16 kt from the West with gusts up to 26 kt
Visibility: 4000 m
thunderstorm, heavy rain

TAF: EGSC 181637Z 1816/1819 24013KT 9999 SCT035 TEMPO 1816/1819 26016G26KT 4000 +TSRA

Weather observations and forecasts of more than 4000 airports (METAR and TAF reports).

The available stations are represented by yellow and red dots on the map.

Hover mouse over dot to see the name of the station.

Then click to see weather observations and forecasts.

To change the map : click on the green buttons with a black cross to zoom in, on the green button with a dash to zoom out, or on the green arrows for adjacent maps.


METAR-TAF: